sensor_id;sensor_type;location;lat;lon;timestamp;P1;durP1;ratioP1;P2;durP2;ratioP2
44750;SDS011;30477;48.224;11.470;2023-02-01T00:01:36;6.07;;;3.87;;
44750;SDS011;30477;48.224;11.470;2023-02-01T00:04:01;5.60;;;3.80;;
44750;SDS011;30477;48.224;11.470;2023-02-01T00:06:27;7.20;;;3.90;;
44750;SDS011;30477;48.224;11.470;2023-02-01T00:08:53;6.43;;;4.17;;
44750;SDS011;30477;48.224;11.470;2023-02-01T00:11:19;8.02;;;4.55;;
44750;SDS011;30477;48.224;11.470;2023-02-01T00:13:45;5.28;;;3.80;;
44750;SDS011;30477;48.224;11.470;2023-02-01T00:16:11;6.03;;;4.17;;
44750;SDS011;30477;48.224;11.470;2023-02-01T00:18:41;6.20;;;4.13;;
44750;SDS011;30477;48.224;11.470;2023-02-01T00:23:35;7.18;;;4.65;;
44750;SDS011;30477;48.224;11.470;2023-02-01T00:26:01;6.35;;;4.30;;
44750;SDS011;30477;48.224;11.470;2023-02-01T00:28:28;7.85;;;5.05;;
44750;SDS011;30477;48.224;11.470;2023-02-01T00:31:01;9.20;;;5.30;;
44750;SDS011;30477;48.224;11.470;2023-02-01T00:33:28;7.97;;;5.10;;
44750;SDS011;30477;48.224;11.470;2023-02-01T00:35:57;7.72;;;5.50;;
44750;SDS011;30477;48.224;11.470;2023-02-01T00:38:25;10.10;;;6.22;;
44750;SDS011;30477;48.224;11.470;2023-02-01T00:40:53;7.97;;;6.05;;
44750;SDS011;30477;48.224;11.470;2023-02-01T00:43:19;8.63;;;6.20;;
44750;SDS011;30477;48.224;11.470;2023-02-01T00:45:45;12.00;;;7.63;;
44750;SDS011;30477;48.224;11.470;2023-02-01T00:48:11;9.13;;;6.68;;
44750;SDS011;30477;48.224;11.470;2023-02-01T00:50:40;10.53;;;7.20;;
44750;SDS011;30477;48.224;11.470;2023-02-01T00:53:06;11.27;;;7.43;;
44750;SDS011;30477;48.224;11.470;2023-02-01T00:55:32;10.50;;;7.47;;
44750;SDS011;30477;48.224;11.470;2023-02-01T00:57:57;11.07;;;7.10;;
44750;SDS011;30477;48.224;11.470;2023-02-01T01:00:22;12.33;;;7.63;;
44750;SDS011;30477;48.224;11.470;2023-02-01T01:02:48;12.90;;;7.73;;
44750;SDS011;30477;48.224;11.470;2023-02-01T01:05:13;13.03;;;7.30;;
44750;SDS011;30477;48.224;11.470;2023-02-01T01:07:38;10.90;;;7.53;;
44750;SDS011;30477;48.224;11.470;2023-02-01T01:10:04;11.50;;;7.40;;
44750;SDS011;30477;48.224;11.470;2023-02-01T01:12:30;11.77;;;7.20;;
44750;SDS011;30477;48.224;11.470;2023-02-01T01:14:55;9.37;;;7.33;;
44750;SDS011;30477;48.224;11.470;2023-02-01T01:17:20;12.67;;;7.53;;
44750;SDS011;30477;48.224;11.470;2023-02-01T01:19:46;9.80;;;7.00;;
44750;SDS011;30477;48.224;11.470;2023-02-01T01:22:11;13.00;;;8.37;;
44750;SDS011;30477;48.224;11.470;2023-02-01T01:24:36;11.90;;;7.60;;
44750;SDS011;30477;48.224;11.470;2023-02-01T01:27:02;9.47;;;7.43;;
44750;SDS011;30477;48.224;11.470;2023-02-01T01:29:27;11.55;;;7.93;;
44750;SDS011;30477;48.224;11.470;2023-02-01T01:31:53;12.07;;;7.63;;
44750;SDS011;30477;48.224;11.470;2023-02-01T01:34:18;11.87;;;7.77;;
44750;SDS011;30477;48.224;11.470;2023-02-01T01:36:43;11.47;;;7.40;;
44750;SDS011;30477;48.224;11.470;2023-02-01T01:39:09;11.00;;;7.50;;
44750;SDS011;30477;48.224;11.470;2023-02-01T01:41:34;13.37;;;7.83;;
44750;SDS011;30477;48.224;11.470;2023-02-01T01:44:03;11.70;;;7.80;;
44750;SDS011;30477;48.224;11.470;2023-02-01T01:46:37;15.18;;;8.57;;
44750;SDS011;30477;48.224;11.470;2023-02-01T01:51:31;12.03;;;7.80;;
44750;SDS011;30477;48.224;11.470;2023-02-01T01:54:02;12.20;;;8.57;;
44750;SDS011;30477;48.224;11.470;2023-02-01T01:56:28;11.85;;;8.13;;
44750;SDS011;30477;48.224;11.470;2023-02-01T01:58:55;12.60;;;7.93;;
44750;SDS011;30477;48.224;11.470;2023-02-01T02:01:21;12.20;;;8.07;;
44750;SDS011;30477;48.224;11.470;2023-02-01T02:03:46;12.23;;;8.33;;
44750;SDS011;30477;48.224;11.470;2023-02-01T02:09:20;11.93;;;8.30;;
44750;SDS011;30477;48.224;11.470;2023-02-01T02:11:46;13.17;;;7.97;;
44750;SDS011;30477;48.224;11.470;2023-02-01T02:14:11;12.27;;;7.57;;
44750;SDS011;30477;48.224;11.470;2023-02-01T02:22:35;11.00;;;7.88;;
44750;SDS011;30477;48.224;11.470;2023-02-01T02:28:04;11.93;;;7.40;;
44750;SDS011;30477;48.224;11.470;2023-02-01T02:33:46;10.88;;;8.20;;
44750;SDS011;30477;48.224;11.470;2023-02-01T02:36:30;11.15;;;7.53;;
44750;SDS011;30477;48.224;11.470;2023-02-01T02:39:12;13.02;;;7.53;;
44750;SDS011;30477;48.224;11.470;2023-02-01T02:48:25;10.63;;;6.80;;
44750;SDS011;30477;48.224;11.470;2023-02-01T02:51:00;11.13;;;7.40;;
44750;SDS011;30477;48.224;11.470;2023-02-01T02:56:55;11.10;;;6.90;;
44750;SDS011;30477;48.224;11.470;2023-02-01T02:59:41;10.65;;;6.68;;
44750;SDS011;30477;48.224;11.470;2023-02-01T03:02:28;7.18;;;5.22;;
44750;SDS011;30477;48.224;11.470;2023-02-01T03:05:14;9.27;;;6.53;;
44750;SDS011;30477;48.224;11.470;2023-02-01T03:10:26;10.90;;;5.88;;
44750;SDS011;30477;48.224;11.470;2023-02-01T03:13:00;10.43;;;6.40;;
44750;SDS011;30477;48.224;11.470;2023-02-01T03:18:36;8.77;;;6.03;;
44750;SDS011;30477;48.224;11.470;2023-02-01T03:21:12;10.15;;;6.30;;
44750;SDS011;30477;48.224;11.470;2023-02-01T03:23:45;9.35;;;5.85;;
44750;SDS011;30477;48.224;11.470;2023-02-01T03:26:13;8.65;;;5.70;;
44750;SDS011;30477;48.224;11.470;2023-02-01T03:28:44;10.57;;;6.05;;
44750;SDS011;30477;48.224;11.470;2023-02-01T03:31:17;7.00;;;5.60;;
44750;SDS011;30477;48.224;11.470;2023-02-01T03:33:42;7.17;;;5.33;;
44750;SDS011;30477;48.224;11.470;2023-02-01T03:47:08;6.65;;;5.22;;
44750;SDS011;30477;48.224;11.470;2023-02-01T03:49:49;8.13;;;5.85;;
44750;SDS011;30477;48.224;11.470;2023-02-01T03:52:18;8.88;;;5.90;;
44750;SDS011;30477;48.224;11.470;2023-02-01T03:54:48;8.70;;;5.95;;
44750;SDS011;30477;48.224;11.470;2023-02-01T03:57:16;7.82;;;5.35;;
44750;SDS011;30477;48.224;11.470;2023-02-01T03:59:46;8.50;;;5.75;;
44750;SDS011;30477;48.224;11.470;2023-02-01T04:02:12;8.40;;;5.33;;
44750;SDS011;30477;48.224;11.470;2023-02-01T04:04:37;8.97;;;5.80;;
44750;SDS011;30477;48.224;11.470;2023-02-01T04:07:03;7.00;;;5.60;;
44750;SDS011;30477;48.224;11.470;2023-02-01T04:09:28;7.77;;;6.03;;
44750;SDS011;30477;48.224;11.470;2023-02-01T04:11:54;8.57;;;6.20;;
44750;SDS011;30477;48.224;11.470;2023-02-01T04:14:19;8.80;;;6.03;;
44750;SDS011;30477;48.224;11.470;2023-02-01T04:16:45;9.77;;;5.77;;
44750;SDS011;30477;48.224;11.470;2023-02-01T04:19:10;8.23;;;5.77;;
44750;SDS011;30477;48.224;11.470;2023-02-01T04:21:35;8.47;;;5.43;;
44750;SDS011;30477;48.224;11.470;2023-02-01T04:24:01;8.53;;;5.60;;
44750;SDS011;30477;48.224;11.470;2023-02-01T04:26:26;8.33;;;5.87;;
44750;SDS011;30477;48.224;11.470;2023-02-01T04:28:51;8.17;;;5.80;;
44750;SDS011;30477;48.224;11.470;2023-02-01T04:31:18;11.13;;;5.75;;
44750;SDS011;30477;48.224;11.470;2023-02-01T04:33:50;9.48;;;5.95;;
44750;SDS011;30477;48.224;11.470;2023-02-01T04:36:19;7.07;;;5.45;;
44750;SDS011;30477;48.224;11.470;2023-02-01T04:38:46;7.32;;;5.30;;
44750;SDS011;30477;48.224;11.470;2023-02-01T04:41:12;7.50;;;5.07;;
44750;SDS011;30477;48.224;11.470;2023-02-01T04:43:37;8.87;;;5.60;;
44750;SDS011;30477;48.224;11.470;2023-02-01T04:46:02;9.53;;;5.80;;
44750;SDS011;30477;48.224;11.470;2023-02-01T04:48:29;7.80;;;5.57;;
44750;SDS011;30477;48.224;11.470;2023-02-01T04:50:55;8.30;;;5.25;;
44750;SDS011;30477;48.224;11.470;2023-02-01T04:53:20;7.07;;;4.97;;
44750;SDS011;30477;48.224;11.470;2023-02-01T04:55:47;8.80;;;5.33;;
44750;SDS011;30477;48.224;11.470;2023-02-01T04:58:13;7.97;;;5.47;;
44750;SDS011;30477;48.224;11.470;2023-02-01T05:00:39;9.53;;;5.87;;
44750;SDS011;30477;48.224;11.470;2023-02-01T05:03:04;8.30;;;6.17;;
44750;SDS011;30477;48.224;11.470;2023-02-01T05:05:30;7.80;;;5.37;;
44750;SDS011;30477;48.224;11.470;2023-02-01T05:07:55;8.43;;;6.10;;
44750;SDS011;30477;48.224;11.470;2023-02-01T05:10:21;8.60;;;5.87;;
44750;SDS011;30477;48.224;11.470;2023-02-01T05:12:47;8.77;;;6.03;;
44750;SDS011;30477;48.224;11.470;2023-02-01T05:15:31;8.52;;;5.50;;
44750;SDS011;30477;48.224;11.470;2023-02-01T05:17:57;8.15;;;5.60;;
44750;SDS011;30477;48.224;11.470;2023-02-01T05:20:23;9.83;;;5.43;;
44750;SDS011;30477;48.224;11.470;2023-02-01T05:22:49;7.70;;;5.95;;
44750;SDS011;30477;48.224;11.470;2023-02-01T05:25:14;10.57;;;5.90;;
44750;SDS011;30477;48.224;11.470;2023-02-01T05:27:40;8.17;;;5.63;;
44750;SDS011;30477;48.224;11.470;2023-02-01T05:30:05;7.80;;;5.83;;
44750;SDS011;30477;48.224;11.470;2023-02-01T05:32:32;9.50;;;6.10;;
44750;SDS011;30477;48.224;11.470;2023-02-01T05:34:58;9.47;;;6.57;;
44750;SDS011;30477;48.224;11.470;2023-02-01T05:37:23;8.47;;;5.87;;
44750;SDS011;30477;48.224;11.470;2023-02-01T05:39:49;9.33;;;6.27;;
44750;SDS011;30477;48.224;11.470;2023-02-01T05:42:14;10.20;;;6.80;;
44750;SDS011;30477;48.224;11.470;2023-02-01T05:44:40;8.37;;;6.27;;
44750;SDS011;30477;48.224;11.470;2023-02-01T05:47:05;8.23;;;6.33;;
44750;SDS011;30477;48.224;11.470;2023-02-01T05:49:30;8.70;;;6.00;;
44750;SDS011;30477;48.224;11.470;2023-02-01T05:51:56;8.90;;;6.10;;
44750;SDS011;30477;48.224;11.470;2023-02-01T05:54:21;10.30;;;5.90;;
44750;SDS011;30477;48.224;11.470;2023-02-01T05:56:46;7.13;;;5.50;;
44750;SDS011;30477;48.224;11.470;2023-02-01T05:59:12;9.93;;;6.30;;
44750;SDS011;30477;48.224;11.470;2023-02-01T06:01:37;9.80;;;6.33;;
44750;SDS011;30477;48.224;11.470;2023-02-01T06:04:02;10.03;;;6.37;;
44750;SDS011;30477;48.224;11.470;2023-02-01T06:06:28;7.83;;;5.53;;
44750;SDS011;30477;48.224;11.470;2023-02-01T06:08:53;8.60;;;5.90;;
44750;SDS011;30477;48.224;11.470;2023-02-01T06:11:18;8.73;;;6.23;;
44750;SDS011;30477;48.224;11.470;2023-02-01T06:13:44;7.70;;;5.67;;
44750;SDS011;30477;48.224;11.470;2023-02-01T06:16:09;8.83;;;5.63;;
44750;SDS011;30477;48.224;11.470;2023-02-01T06:18:35;7.60;;;5.40;;
44750;SDS011;30477;48.224;11.470;2023-02-01T06:21:00;8.60;;;5.80;;
44750;SDS011;30477;48.224;11.470;2023-02-01T06:23:26;10.67;;;6.50;;
44750;SDS011;30477;48.224;11.470;2023-02-01T06:28:24;8.68;;;5.80;;
44750;SDS011;30477;48.224;11.470;2023-02-01T06:30:50;8.43;;;5.60;;
44750;SDS011;30477;48.224;11.470;2023-02-01T06:33:15;7.57;;;5.53;;
44750;SDS011;30477;48.224;11.470;2023-02-01T06:35:44;8.97;;;5.90;;
44750;SDS011;30477;48.224;11.470;2023-02-01T06:38:12;8.40;;;6.07;;
44750;SDS011;30477;48.224;11.470;2023-02-01T06:40:38;9.77;;;6.03;;
44750;SDS011;30477;48.224;11.470;2023-02-01T06:43:04;8.43;;;6.30;;
44750;SDS011;30477;48.224;11.470;2023-02-01T06:45:29;8.63;;;5.80;;
44750;SDS011;30477;48.224;11.470;2023-02-01T06:47:55;8.35;;;5.72;;
44750;SDS011;30477;48.224;11.470;2023-02-01T06:50:20;8.10;;;5.43;;
44750;SDS011;30477;48.224;11.470;2023-02-01T06:52:46;8.15;;;5.30;;
44750;SDS011;30477;48.224;11.470;2023-02-01T06:55:11;7.67;;;5.00;;
44750;SDS011;30477;48.224;11.470;2023-02-01T07:00:03;6.80;;;4.83;;
44750;SDS011;30477;48.224;11.470;2023-02-01T07:02:29;9.10;;;6.15;;
44750;SDS011;30477;48.224;11.470;2023-02-01T07:04:55;7.67;;;5.40;;
44750;SDS011;30477;48.224;11.470;2023-02-01T07:07:20;7.83;;;5.30;;
44750;SDS011;30477;48.224;11.470;2023-02-01T07:09:48;6.60;;;4.90;;
44750;SDS011;30477;48.224;11.470;2023-02-01T07:12:14;9.68;;;5.20;;
44750;SDS011;30477;48.224;11.470;2023-02-01T07:14:39;7.77;;;5.53;;
44750;SDS011;30477;48.224;11.470;2023-02-01T07:17:04;9.07;;;5.57;;
44750;SDS011;30477;48.224;11.470;2023-02-01T07:19:29;5.63;;;4.30;;
44750;SDS011;30477;48.224;11.470;2023-02-01T07:21:55;7.17;;;4.30;;
44750;SDS011;30477;48.224;11.470;2023-02-01T07:24:20;7.97;;;5.73;;
44750;SDS011;30477;48.224;11.470;2023-02-01T07:26:46;7.43;;;5.13;;
44750;SDS011;30477;48.224;11.470;2023-02-01T07:29:12;6.53;;;4.82;;
44750;SDS011;30477;48.224;11.470;2023-02-01T07:31:38;7.70;;;4.73;;
44750;SDS011;30477;48.224;11.470;2023-02-01T07:34:03;6.00;;;4.47;;
44750;SDS011;30477;48.224;11.470;2023-02-01T07:36:29;5.53;;;4.10;;
44750;SDS011;30477;48.224;11.470;2023-02-01T07:38:54;8.93;;;4.83;;
44750;SDS011;30477;48.224;11.470;2023-02-01T07:41:20;6.63;;;4.63;;
44750;SDS011;30477;48.224;11.470;2023-02-01T07:43:45;7.17;;;5.43;;
44750;SDS011;30477;48.224;11.470;2023-02-01T07:46:11;5.93;;;3.83;;
44750;SDS011;30477;48.224;11.470;2023-02-01T07:48:36;5.77;;;4.23;;
44750;SDS011;30477;48.224;11.470;2023-02-01T07:51:02;5.27;;;4.27;;
44750;SDS011;30477;48.224;11.470;2023-02-01T07:53:30;5.00;;;3.63;;
44750;SDS011;30477;48.224;11.470;2023-02-01T07:55:56;5.70;;;3.80;;
44750;SDS011;30477;48.224;11.470;2023-02-01T07:58:22;5.90;;;3.85;;
44750;SDS011;30477;48.224;11.470;2023-02-01T08:03:32;5.55;;;3.60;;
44750;SDS011;30477;48.224;11.470;2023-02-01T08:05:58;5.00;;;4.03;;
44750;SDS011;30477;48.224;11.470;2023-02-01T08:08:23;5.70;;;3.90;;
44750;SDS011;30477;48.224;11.470;2023-02-01T08:10:49;8.00;;;4.80;;
44750;SDS011;30477;48.224;11.470;2023-02-01T08:13:14;5.87;;;4.37;;
44750;SDS011;30477;48.224;11.470;2023-02-01T08:15:40;7.50;;;4.43;;
44750;SDS011;30477;48.224;11.470;2023-02-01T08:18:05;5.80;;;4.20;;
44750;SDS011;30477;48.224;11.470;2023-02-01T08:20:31;5.97;;;4.10;;
44750;SDS011;30477;48.224;11.470;2023-02-01T08:22:56;5.47;;;3.95;;
44750;SDS011;30477;48.224;11.470;2023-02-01T08:25:23;5.93;;;4.00;;
44750;SDS011;30477;48.224;11.470;2023-02-01T08:27:49;5.13;;;3.90;;
44750;SDS011;30477;48.224;11.470;2023-02-01T08:32:40;6.15;;;4.00;;
44750;SDS011;30477;48.224;11.470;2023-02-01T08:35:06;5.63;;;3.70;;
44750;SDS011;30477;48.224;11.470;2023-02-01T08:37:31;8.05;;;4.80;;
44750;SDS011;30477;48.224;11.470;2023-02-01T08:39:57;8.57;;;4.57;;
44750;SDS011;30477;48.224;11.470;2023-02-01T08:42:22;5.93;;;3.93;;
44750;SDS011;30477;48.224;11.470;2023-02-01T08:45:07;6.63;;;3.95;;
44750;SDS011;30477;48.224;11.470;2023-02-01T08:47:33;8.18;;;4.13;;
44750;SDS011;30477;48.224;11.470;2023-02-01T08:49:59;6.72;;;4.65;;
44750;SDS011;30477;48.224;11.470;2023-02-01T08:52:24;5.77;;;4.27;;
44750;SDS011;30477;48.224;11.470;2023-02-01T08:54:50;7.03;;;4.05;;
44750;SDS011;30477;48.224;11.470;2023-02-01T08:57:15;8.17;;;4.47;;
44750;SDS011;30477;48.224;11.470;2023-02-01T08:59:40;6.60;;;3.90;;
44750;SDS011;30477;48.224;11.470;2023-02-01T09:02:08;10.37;;;4.07;;
44750;SDS011;30477;48.224;11.470;2023-02-01T09:04:36;8.32;;;4.55;;
44750;SDS011;30477;48.224;11.470;2023-02-01T09:07:02;6.37;;;4.07;;
44750;SDS011;30477;48.224;11.470;2023-02-01T09:09:27;5.70;;;3.73;;
44750;SDS011;30477;48.224;11.470;2023-02-01T09:11:56;7.57;;;4.17;;
44750;SDS011;30477;48.224;11.470;2023-02-01T09:14:21;6.85;;;4.70;;
44750;SDS011;30477;48.224;11.470;2023-02-01T09:16:46;8.60;;;4.17;;
44750;SDS011;30477;48.224;11.470;2023-02-01T09:19:12;8.80;;;4.73;;
44750;SDS011;30477;48.224;11.470;2023-02-01T09:21:37;9.82;;;3.83;;
44750;SDS011;30477;48.224;11.470;2023-02-01T09:24:03;15.77;;;4.37;;
44750;SDS011;30477;48.224;11.470;2023-02-01T09:26:29;6.63;;;3.92;;
44750;SDS011;30477;48.224;11.470;2023-02-01T09:28:54;9.68;;;3.45;;
44750;SDS011;30477;48.224;11.470;2023-02-01T09:31:20;10.90;;;4.27;;
44750;SDS011;30477;48.224;11.470;2023-02-01T09:33:45;7.13;;;3.70;;
44750;SDS011;30477;48.224;11.470;2023-02-01T09:36:11;9.00;;;4.25;;
44750;SDS011;30477;48.224;11.470;2023-02-01T09:38:36;5.97;;;3.67;;
44750;SDS011;30477;48.224;11.470;2023-02-01T09:41:06;8.30;;;4.53;;
44750;SDS011;30477;48.224;11.470;2023-02-01T09:46:24;5.82;;;3.72;;
44750;SDS011;30477;48.224;11.470;2023-02-01T09:48:54;5.40;;;3.70;;
44750;SDS011;30477;48.224;11.470;2023-02-01T09:51:26;7.70;;;3.53;;
44750;SDS011;30477;48.224;11.470;2023-02-01T09:54:00;7.15;;;3.60;;
44750;SDS011;30477;48.224;11.470;2023-02-01T10:02:12;8.40;;;4.03;;
44750;SDS011;30477;48.224;11.470;2023-02-01T10:04:42;7.20;;;3.55;;
44750;SDS011;30477;48.224;11.470;2023-02-01T10:07:20;6.95;;;4.15;;
44750;SDS011;30477;48.224;11.470;2023-02-01T10:09:59;9.23;;;3.55;;
44750;SDS011;30477;48.224;11.470;2023-02-01T10:12:44;10.73;;;4.10;;
44750;SDS011;30477;48.224;11.470;2023-02-01T10:26:30;7.22;;;3.85;;
44750;SDS011;30477;48.224;11.470;2023-02-01T10:28:59;8.65;;;4.20;;
44750;SDS011;30477;48.224;11.470;2023-02-01T10:31:36;5.45;;;3.83;;
44750;SDS011;30477;48.224;11.470;2023-02-01T10:34:19;10.48;;;4.82;;
44750;SDS011;30477;48.224;11.470;2023-02-01T10:36:55;4.88;;;3.70;;
44750;SDS011;30477;48.224;11.470;2023-02-01T10:39:21;6.35;;;3.92;;
44750;SDS011;30477;48.224;11.470;2023-02-01T10:41:47;6.72;;;3.88;;
44750;SDS011;30477;48.224;11.470;2023-02-01T10:44:17;4.27;;;3.50;;
44750;SDS011;30477;48.224;11.470;2023-02-01T10:46:45;5.53;;;4.03;;
44750;SDS011;30477;48.224;11.470;2023-02-01T10:49:16;7.87;;;4.13;;
44750;SDS011;30477;48.224;11.470;2023-02-01T10:51:47;6.85;;;4.28;;
44750;SDS011;30477;48.224;11.470;2023-02-01T10:54:18;9.32;;;3.75;;
44750;SDS011;30477;48.224;11.470;2023-02-01T10:56:46;5.50;;;3.90;;
44750;SDS011;30477;48.224;11.470;2023-02-01T10:59:19;8.88;;;4.35;;
44750;SDS011;30477;48.224;11.470;2023-02-01T11:01:49;5.25;;;3.90;;
44750;SDS011;30477;48.224;11.470;2023-02-01T11:04:16;12.82;;;4.43;;
44750;SDS011;30477;48.224;11.470;2023-02-01T11:06:49;8.32;;;4.45;;
44750;SDS011;30477;48.224;11.470;2023-02-01T11:09:19;11.20;;;4.60;;
44750;SDS011;30477;48.224;11.470;2023-02-01T11:16:40;6.53;;;4.50;;
44750;SDS011;30477;48.224;11.470;2023-02-01T11:19:17;9.95;;;5.07;;
44750;SDS011;30477;48.224;11.470;2023-02-01T11:21:43;6.43;;;4.60;;
44750;SDS011;30477;48.224;11.470;2023-02-01T11:24:26;7.40;;;4.90;;
44750;SDS011;30477;48.224;11.470;2023-02-01T11:26:55;7.35;;;4.43;;
44750;SDS011;30477;48.224;11.470;2023-02-01T11:29:21;6.80;;;4.70;;
44750;SDS011;30477;48.224;11.470;2023-02-01T11:31:54;7.05;;;4.78;;
44750;SDS011;30477;48.224;11.470;2023-02-01T11:34:36;9.00;;;4.72;;
44750;SDS011;30477;48.224;11.470;2023-02-01T11:37:03;6.88;;;4.25;;
44750;SDS011;30477;48.224;11.470;2023-02-01T11:39:34;7.80;;;4.75;;
44750;SDS011;30477;48.224;11.470;2023-02-01T11:42:04;7.27;;;4.93;;
44750;SDS011;30477;48.224;11.470;2023-02-01T11:44:38;9.38;;;4.43;;
44750;SDS011;30477;48.224;11.470;2023-02-01T11:49:56;7.80;;;5.20;;
44750;SDS011;30477;48.224;11.470;2023-02-01T11:52:29;8.43;;;4.97;;
44750;SDS011;30477;48.224;11.470;2023-02-01T12:20:12;8.95;;;5.22;;
44750;SDS011;30477;48.224;11.470;2023-02-01T12:33:41;9.32;;;5.07;;
44750;SDS011;30477;48.224;11.470;2023-02-01T12:41:45;9.98;;;4.60;;
44750;SDS011;30477;48.224;11.470;2023-02-01T12:44:26;11.57;;;5.47;;
44750;SDS011;30477;48.224;11.470;2023-02-01T12:47:25;6.93;;;4.63;;
44750;SDS011;30477;48.224;11.470;2023-02-01T12:50:05;7.13;;;4.63;;
44750;SDS011;30477;48.224;11.470;2023-02-01T12:52:51;9.48;;;4.90;;
44750;SDS011;30477;48.224;11.470;2023-02-01T12:58:06;9.30;;;4.93;;
44750;SDS011;30477;48.224;11.470;2023-02-01T13:00:43;11.23;;;4.32;;
44750;SDS011;30477;48.224;11.470;2023-02-01T13:05:52;11.30;;;4.18;;
44750;SDS011;30477;48.224;11.470;2023-02-01T13:08:24;8.55;;;4.03;;
44750;SDS011;30477;48.224;11.470;2023-02-01T13:10:59;7.30;;;3.70;;
44750;SDS011;30477;48.224;11.470;2023-02-01T13:13:35;10.25;;;4.35;;
44750;SDS011;30477;48.224;11.470;2023-02-01T13:18:52;7.80;;;4.40;;
44750;SDS011;30477;48.224;11.470;2023-02-01T13:21:30;10.35;;;4.88;;
44750;SDS011;30477;48.224;11.470;2023-02-01T13:23:59;9.65;;;4.78;;
44750;SDS011;30477;48.224;11.470;2023-02-01T13:26:24;7.63;;;4.65;;
44750;SDS011;30477;48.224;11.470;2023-02-01T13:29:00;7.83;;;4.80;;
44750;SDS011;30477;48.224;11.470;2023-02-01T13:31:37;9.82;;;4.97;;
44750;SDS011;30477;48.224;11.470;2023-02-01T13:36:56;12.27;;;4.45;;
44750;SDS011;30477;48.224;11.470;2023-02-01T13:42:15;6.70;;;4.68;;
44750;SDS011;30477;48.224;11.470;2023-02-01T13:44:47;9.25;;;4.35;;
44750;SDS011;30477;48.224;11.470;2023-02-01T13:47:22;6.13;;;4.47;;
44750;SDS011;30477;48.224;11.470;2023-02-01T13:49:50;8.05;;;5.00;;
44750;SDS011;30477;48.224;11.470;2023-02-01T13:52:29;8.52;;;5.18;;
44750;SDS011;30477;48.224;11.470;2023-02-01T13:55:15;7.45;;;4.75;;
44750;SDS011;30477;48.224;11.470;2023-02-01T13:57:58;7.03;;;4.65;;
44750;SDS011;30477;48.224;11.470;2023-02-01T14:10:52;9.27;;;5.15;;
44750;SDS011;30477;48.224;11.470;2023-02-01T14:13:30;6.43;;;4.80;;
44750;SDS011;30477;48.224;11.470;2023-02-01T14:18:49;7.87;;;4.60;;
44750;SDS011;30477;48.224;11.470;2023-02-01T14:23:43;5.47;;;4.55;;
44750;SDS011;30477;48.224;11.470;2023-02-01T14:26:15;9.70;;;5.10;;
44750;SDS011;30477;48.224;11.470;2023-02-01T14:28:44;7.53;;;4.43;;
44750;SDS011;30477;48.224;11.470;2023-02-01T14:31:44;6.13;;;3.97;;
44750;SDS011;30477;48.224;11.470;2023-02-01T14:37:03;6.32;;;3.90;;
44750;SDS011;30477;48.224;11.470;2023-02-01T14:39:33;5.70;;;3.17;;
44750;SDS011;30477;48.224;11.470;2023-02-01T14:42:04;7.55;;;4.03;;
44750;SDS011;30477;48.224;11.470;2023-02-01T14:44:39;9.65;;;3.65;;
44750;SDS011;30477;48.224;11.470;2023-02-01T14:52:37;7.80;;;3.20;;
44750;SDS011;30477;48.224;11.470;2023-02-01T14:55:11;7.22;;;3.53;;
44750;SDS011;30477;48.224;11.470;2023-02-01T15:00:51;8.30;;;3.42;;
44750;SDS011;30477;48.224;11.470;2023-02-01T15:03:24;8.10;;;3.53;;
44750;SDS011;30477;48.224;11.470;2023-02-01T15:08:48;7.68;;;3.60;;
44750;SDS011;30477;48.224;11.470;2023-02-01T15:11:14;6.93;;;3.38;;
44750;SDS011;30477;48.224;11.470;2023-02-01T15:13:47;9.20;;;3.13;;
44750;SDS011;30477;48.224;11.470;2023-02-01T15:16:15;12.30;;;3.40;;
44750;SDS011;30477;48.224;11.470;2023-02-01T15:18:42;13.18;;;3.70;;
44750;SDS011;30477;48.224;11.470;2023-02-01T15:21:23;8.13;;;3.33;;
44750;SDS011;30477;48.224;11.470;2023-02-01T15:23:50;7.32;;;3.20;;
44750;SDS011;30477;48.224;11.470;2023-02-01T15:26:28;7.10;;;3.40;;
44750;SDS011;30477;48.224;11.470;2023-02-01T15:28:56;8.63;;;3.88;;
44750;SDS011;30477;48.224;11.470;2023-02-01T15:31:35;5.22;;;3.25;;
44750;SDS011;30477;48.224;11.470;2023-02-01T15:34:03;8.63;;;3.70;;
44750;SDS011;30477;48.224;11.470;2023-02-01T15:36:29;7.50;;;3.58;;
44750;SDS011;30477;48.224;11.470;2023-02-01T15:42:27;7.50;;;3.70;;
44750;SDS011;30477;48.224;11.470;2023-02-01T15:44:41;11.95;;;3.85;;
44750;SDS011;30477;48.224;11.470;2023-02-01T15:47:18;6.15;;;3.67;;
44750;SDS011;30477;48.224;11.470;2023-02-01T15:49:50;10.75;;;3.88;;
44750;SDS011;30477;48.224;11.470;2023-02-01T15:52:26;12.90;;;3.30;;
44750;SDS011;30477;48.224;11.470;2023-02-01T15:55:01;8.15;;;3.35;;
44750;SDS011;30477;48.224;11.470;2023-02-01T15:57:29;9.45;;;3.13;;
44750;SDS011;30477;48.224;11.470;2023-02-01T16:00:03;6.85;;;2.78;;
44750;SDS011;30477;48.224;11.470;2023-02-01T16:02:35;7.72;;;3.00;;
44750;SDS011;30477;48.224;11.470;2023-02-01T16:05:04;6.22;;;2.90;;
44750;SDS011;30477;48.224;11.470;2023-02-01T16:07:32;4.15;;;2.45;;
44750;SDS011;30477;48.224;11.470;2023-02-01T16:10:02;8.80;;;3.08;;
44750;SDS011;30477;48.224;11.470;2023-02-01T16:12:48;4.90;;;2.60;;
44750;SDS011;30477;48.224;11.470;2023-02-01T16:15:14;10.43;;;2.80;;
44750;SDS011;30477;48.224;11.470;2023-02-01T16:17:39;7.87;;;2.87;;
44750;SDS011;30477;48.224;11.470;2023-02-01T16:20:05;8.63;;;2.90;;
44750;SDS011;30477;48.224;11.470;2023-02-01T16:22:31;9.05;;;3.28;;
44750;SDS011;30477;48.224;11.470;2023-02-01T16:24:56;8.57;;;2.87;;
44750;SDS011;30477;48.224;11.470;2023-02-01T16:27:22;10.47;;;3.03;;
44750;SDS011;30477;48.224;11.470;2023-02-01T16:29:48;6.40;;;3.30;;
44750;SDS011;30477;48.224;11.470;2023-02-01T16:32:17;10.02;;;2.80;;
44750;SDS011;30477;48.224;11.470;2023-02-01T16:34:46;7.20;;;2.55;;
44750;SDS011;30477;48.224;11.470;2023-02-01T16:37:13;7.43;;;2.83;;
44750;SDS011;30477;48.224;11.470;2023-02-01T16:39:41;9.38;;;2.60;;
44750;SDS011;30477;48.224;11.470;2023-02-01T16:42:13;7.67;;;2.70;;
44750;SDS011;30477;48.224;11.470;2023-02-01T16:44:40;7.20;;;2.80;;
44750;SDS011;30477;48.224;11.470;2023-02-01T16:49:42;8.02;;;2.95;;
44750;SDS011;30477;48.224;11.470;2023-02-01T16:52:11;10.35;;;4.07;;
44750;SDS011;30477;48.224;11.470;2023-02-01T16:54:46;9.63;;;3.47;;
44750;SDS011;30477;48.224;11.470;2023-02-01T16:57:13;9.35;;;3.30;;
44750;SDS011;30477;48.224;11.470;2023-02-01T16:59:40;8.48;;;3.30;;
44750;SDS011;30477;48.224;11.470;2023-02-01T17:02:06;9.23;;;3.90;;
44750;SDS011;30477;48.224;11.470;2023-02-01T17:04:34;9.57;;;3.97;;
44750;SDS011;30477;48.224;11.470;2023-02-01T17:07:00;8.43;;;4.18;;
44750;SDS011;30477;48.224;11.470;2023-02-01T17:09:34;8.23;;;3.50;;
44750;SDS011;30477;48.224;11.470;2023-02-01T17:12:01;7.55;;;4.20;;
44750;SDS011;30477;48.224;11.470;2023-02-01T17:14:29;13.50;;;3.80;;
44750;SDS011;30477;48.224;11.470;2023-02-01T17:16:56;7.40;;;4.20;;
44750;SDS011;30477;48.224;11.470;2023-02-01T17:19:22;9.13;;;4.43;;
44750;SDS011;30477;48.224;11.470;2023-02-01T17:21:50;9.38;;;4.30;;
44750;SDS011;30477;48.224;11.470;2023-02-01T17:24:20;10.57;;;4.32;;
44750;SDS011;30477;48.224;11.470;2023-02-01T17:26:49;11.65;;;3.88;;
44750;SDS011;30477;48.224;11.470;2023-02-01T17:29:16;11.80;;;3.80;;
44750;SDS011;30477;48.224;11.470;2023-02-01T17:31:43;7.22;;;3.60;;
44750;SDS011;30477;48.224;11.470;2023-02-01T17:34:12;6.15;;;3.40;;
44750;SDS011;30477;48.224;11.470;2023-02-01T17:36:43;16.98;;;4.30;;